• Join FlightAware (Why Join?)
  • Login
  • US Flag 
06:44AM EDT


 

Airport Tracker/Info


-or-


 

Live Flight TrackerFlight Track Log ✈ SWA232 ✈ 01-May-2013 ✈ KMHT - KMDW

Flight Track Log - Related Links

Times and Time Zones

All times are in EDT time to prevent confusion due to time zone crossing. See the SWA232 flight status page for this flight to view local times or setup timezone preferences in your user account.

Time Position Orientation Groundspeed Altitude Reporting Facility
EDT Latitude Longitude Course Direction KTS MPH feet Rate Location/Type
06:33AM 42.9500 -71.4167 13° North 154 177 1,300  Level KA90
06:35AM 43.0189 -71.3950 13° North 219 252 4,600 2,520 Climbing Boston Center
06:36AM 43.0403 -71.4714 291° West 167 192 7,400 3,120 Climbing Boston Center
06:37AM 43.0578 -71.5847 282° West 248 285 10,900 3,120 Climbing Boston Center
06:38AM 43.0608 -71.7156 272° West 319 367 13,700 3,000 Climbing Boston Center
06:39AM 43.0575 -71.8519 268° West 351 404 16,900 2,820 Climbing Boston Center
06:40AM 43.0478 -71.9939 265° West 367 422 19,400 2,640 Climbing Boston Center
06:41AM 43.0356 -72.1419 264° West 380 437 22,200 2,400 Climbing Boston Center
06:42AM 43.0275 -72.2783 265° West 400 460 24,200 1,800 Climbing Boston Center
06:43AM 43.0172 -72.4344 265° West 409 471 25,900 1,800 Climbing Boston Center
06:44AM 43.0047 -72.6019 264° West 432 497 27,900 1,920 Climbing Boston Center
06:45AM 42.9939 -72.7722 265° West 448 516 29,800 1,800 Climbing Boston Center
06:46AM 42.9828 -72.9425 265° West 454 522 31,500 1,800 Climbing Boston Center
06:47AM 42.9778 -73.1353 268° West 466 536 33,400 1,800 Climbing Boston Center
06:48AM 42.9681 -73.3083 266° West 466 536 35,100 1,440 Climbing Boston Center
06:49AM 42.9542 -73.4756 264° West 460 529 36,300 1,200 Climbing Boston Center
06:50AM 42.9442 -73.6483 266° West 460 529 37,500 840 Climbing Boston Center
06:51AM 42.9339 -73.8211 265° West 460 529 38,000 240 Climbing Boston Center
06:52AM 42.9256 -73.9883 266° West 460 529 38,000  Level Boston Center
06:53AM 42.9125 -74.1581 264° West 460 529 38,000  Level Boston Center
06:54AM 42.9017 -74.3278 265° West 460 529 38,000  Level Boston Center
06:55AM 42.8903 -74.4947 265° West 460 529 38,000  Level Boston Center
06:56AM 42.8808 -74.6644 266° West 460 529 38,000  Level Boston Center
06:57AM 42.8692 -74.8339 265° West 460 529 38,000  Level Boston Center
06:58AM 42.8575 -74.9836 264° West 460 529 38,000  Level Boston Center
06:59AM 42.8453 -75.1558 265° West 460 529 38,000  Level Boston Center
07:00AM 42.8328 -75.3225 264° West 460 529 38,000  Level Boston Center
07:01AM 42.8222 -75.4889 265° West 460 529 38,000  Level Boston Center
07:02AM 42.8092 -75.6583 264° West 455 524 38,000  Level Boston Center
07:04AM 42.7808 -76.0253 264° West 457 526 38,000  Level Cleveland Center
07:05AM 42.7664 -76.1878 263° West 442 509 38,000  Level Cleveland Center
07:06AM 42.7536 -76.3525 264° West 442 509 38,000  Level Cleveland Center
07:07AM 42.7408 -76.5175 264° West 442 509 38,000  Level Cleveland Center
07:08AM 42.7256 -76.6797 263° West 442 509 38,000  Level Cleveland Center
07:09AM 42.7139 -76.8244 264° West 448 516 38,000  Level Cleveland Center
07:10AM 42.6961 -76.9867 262° West 448 516 38,000  Level Cleveland Center
07:11AM 42.6739 -77.1489 259° West 448 516 38,000  Level Cleveland Center
07:12AM 42.6494 -77.3114 258° West 448 516 38,000  Level Cleveland Center
07:13AM 42.6233 -77.4961 259° West 454 522 38,000  Level Cleveland Center
07:14AM 42.6003 -77.6581 259° West 449 517 38,000  Level Cleveland Center
07:15AM 42.5792 -77.8197 260° West 449 517 38,000  Level Cleveland Center
07:16AM 42.5539 -77.9817 258° West 449 517 38,000  Level Cleveland Center
07:17AM 42.5303 -78.1403 259° West 449 517 38,000  Level Cleveland Center
07:18AM 42.5064 -78.3047 259° West 449 517 38,000  Level Cleveland Center
07:19AM 42.4803 -78.4661 258° West 449 517 38,000  Level Cleveland Center
07:20AM 42.4561 -78.6272 259° West 449 517 38,000  Level Cleveland Center
07:21AM 42.4339 -78.7883 259° West 449 517 38,000  Level Cleveland Center
07:22AM 42.4069 -78.9494 257° West 449 517 38,000  Level Cleveland Center
07:23AM 42.3819 -79.1103 258° West 449 517 38,000  Level Cleveland Center
07:24AM 42.3547 -79.2739 257° West 449 517 38,000  Level Cleveland Center
07:25AM 42.3294 -79.4344 258° West 449 517 38,000  Level Cleveland Center
07:26AM 42.3058 -79.5922 259° West 449 517 38,000  Level Cleveland Center
07:27AM 42.2758 -79.7525 256° West 444 511 38,000  Level Cleveland Center
07:28AM 42.2539 -79.8931 258° West 444 511 38,000  Level Cleveland Center
07:29AM 42.2256 -80.0728 258° West 444 511 38,000  Level Cleveland Center
07:30AM 42.1969 -80.2272 256° West 433 498 38,000  Level Cleveland Center
07:31AM 42.1703 -80.3842 257° West 433 498 38,000  Level Cleveland Center
07:32AM 42.1433 -80.5439 257° West 434 499 38,000  Level Cleveland Center
07:33AM 42.1183 -80.7008 258° West 434 499 38,000  Level Cleveland Center
07:34AM 42.0908 -80.8631 257° West 434 499 38,000  Level Cleveland Center
07:35AM 42.0614 -81.0167 256° West 434 499 38,000  Level Cleveland Center
07:36AM 42.0314 -81.1786 256° West 434 499 38,000  Level Cleveland Center
07:37AM 42.0056 -81.3375 258° West 440 506 38,000  Level Cleveland Center
07:38AM 41.9750 -81.4936 255° West 440 506 38,000  Level Cleveland Center
07:39AM 41.8969 -81.6153 229° Southwest 426 490 38,000  Level Cleveland Center
07:40AM 41.8147 -81.7058 219° Southwest 411 473 38,000  Level Cleveland Center
07:41AM 41.7283 -81.8100 222° Southwest 422 486 38,000  Level Cleveland Center
07:42AM 41.6375 -81.9167 221° Southwest 428 493 38,000  Level Cleveland Center
07:43AM 41.5486 -82.0231 222° Southwest 433 498 38,000  Level Cleveland Center
07:44AM 41.4575 -82.1292 221° Southwest 433 498 38,000  Level Cleveland Center
07:45AM 41.3686 -82.2322 221° Southwest 433 498 38,000  Level Cleveland Center
07:46AM 41.2794 -82.3378 222° Southwest 433 498 38,000  Level Cleveland Center
07:47AM 41.1881 -82.4483 222° Southwest 433 498 38,000  Level Cleveland Center
07:48AM 41.1008 -82.5533 222° Southwest 433 498 38,000  Level Cleveland Center
07:49AM 41.0175 -82.6636 225° Southwest 426 490 38,000  Level Cleveland Center
07:50AM 41.0228 -82.8206 273° West 390 449 38,000  Level Cleveland Center
07:51AM 41.0486 -82.9950 281° West 414 476 38,000  Level Cleveland Center
07:52AM 41.0761 -83.1586 283° West 441 507 38,000  Level Cleveland Center
07:53AM 41.1017 -83.3139 282° West 446 513 38,000  Level Cleveland Center
07:54AM 41.1292 -83.4750 283° West 446 513 38,000  Level Cleveland Center
07:55AM 41.1686 -83.6367 288° West 451 519 38,000  Level Cleveland Center
07:56AM 41.2186 -83.7908 293° West 457 526 38,000  Level Cleveland Center
07:57AM 41.2647 -83.9258 294° West 457 526 38,000 -180 Level Cleveland Center
07:58AM 41.3122 -84.0803 292° West 452 520 37,700 -720 Descending Cleveland Center
07:58AM 41.3406 -84.1731 292° West 452 520 36,900 -1,740 Descending Chicago Center
07:59AM 41.3906 -84.3256 294° West 450 518 35,000 -1,380 Descending Chicago Center
08:00AM 41.4006 -84.3897 282° West 452 520 35,000 -2,400 Level Cleveland Center
08:02AM 41.4231 -84.6544 277° West 451 519 30,100 -1,920 Descending Chicago Center
08:03AM 41.4350 -84.8264 275° West 463 533 30,000 -60 Descending Chicago Center
08:04AM 41.4494 -84.9986 276° West 468 539 30,000 -840 Level Chicago Center
08:05AM 41.4658 -85.2089 276° West 472 543 28,400 -2,340 Descending Chicago Center
08:06AM 41.4775 -85.3833 275° West 468 539 25,300 -2,160 Descending Chicago Center
08:07AM 41.4906 -85.5508 276° West 441 507 24,000 -1,320 Descending Chicago Center
08:08AM 41.5022 -85.7117 276° West 432 497 22,700 -1,860 Descending Chicago Center
08:09AM 41.5128 -85.8642 275° West 411 473 20,200 -2,460 Descending Chicago Center
08:10AM 41.5236 -86.0119 276° West 400 460 17,700 -2,460 Descending Chicago Center
08:11AM 41.5239 -86.1528 270° West 383 441 15,200 -2,460 Descending Chicago Center
08:12AM 41.5239 -86.2925 270° West 373 429 12,700 -2,400 Descending Chicago Center
08:13AM 41.5225 -86.4281 269° West 367 422 10,300 -1,320 Descending Chicago Center
08:14AM 41.5211 -86.5736 269° West 322 371 10,100 -120 Descending Chicago Center
08:15AM 41.5158 -86.6789 266° West 290 334 10,100  Level Chicago Center
08:16AM 41.4903 -86.7881 253° West 285 328 10,100 -480 Level Chicago Center
08:17AM 41.4853 -86.8933 266° West 296 341 9,200 -960 Descending Chicago Center
08:18AM 41.4961 -86.9994 278° West 293 337 8,200 -1,080 Descending Chicago Center
08:19AM 41.5089 -87.1031 279° West 287 330 7,100 -840 Descending Chicago Center
08:20AM 41.5161 -87.2014 276° West 271 312 6,500 -600 Descending Chicago Center
08:21AM 41.4939 -87.2808 250° West 237 273 5,900 -300 Descending Chicago Center
08:22AM 41.4992 -87.3656 275° West 210 242 6,000  Climbing Chicago Center
08:23AM 41.5425 -87.4125 321° Northwest 205 236 6,000  Level Chicago Center
08:24AM 41.5817 -87.4606 317° Northwest 196 226 6,000 -360 Level Chicago Center
08:25AM 41.6156 -87.5144 310° West 192 221 5,300 -840 Descending Chicago Center
08:26AM 41.6517 -87.5664 313° West 192 221 4,300 -1,200 Descending Chicago Center
08:27AM 41.7000 -87.6333 314° West 192 221 2,900 -1,080 Descending Chicago TRACON
08:28AM 41.7333 -87.6500 340° North 191 220 2,200 -480 Descending Chicago TRACON
08:29AM 41.7833 -87.6333 14° North 187 215 2,000 -120 Descending Chicago TRACON
08:30AM 41.8333 -87.6500 346° North 178 205 2,000 -60 Level Chicago TRACON
08:31AM 41.8333 -87.6833 270° West 135 155 1,900 -480 Descending Chicago TRACON
08:32AM 41.8167 -87.7167 236° Southwest 118 136 1,100 -840 Descending Chicago TRACON